sensor_id;sensor_type;location;lat;lon;timestamp;temperature;humidity
12268;DHT22;6196;48.398;11.736;2022-10-23T00:01:29;10.20;99.90
12268;DHT22;6196;48.398;11.736;2022-10-23T00:04:06;10.20;99.90
12268;DHT22;6196;48.398;11.736;2022-10-23T00:06:47;10.10;99.90
12268;DHT22;6196;48.398;11.736;2022-10-23T00:09:16;10.00;99.90
12268;DHT22;6196;48.398;11.736;2022-10-23T00:11:45;9.90;99.90
12268;DHT22;6196;48.398;11.736;2022-10-23T00:14:22;10.00;99.90
12268;DHT22;6196;48.398;11.736;2022-10-23T00:16:50;9.90;99.90
12268;DHT22;6196;48.398;11.736;2022-10-23T00:19:17;9.90;99.90
12268;DHT22;6196;48.398;11.736;2022-10-23T00:21:44;9.90;99.90
12268;DHT22;6196;48.398;11.736;2022-10-23T00:24:11;9.90;99.90
12268;DHT22;6196;48.398;11.736;2022-10-23T00:26:38;9.90;99.90
12268;DHT22;6196;48.398;11.736;2022-10-23T00:29:06;9.90;99.90
12268;DHT22;6196;48.398;11.736;2022-10-23T00:31:34;9.70;99.90
12268;DHT22;6196;48.398;11.736;2022-10-23T00:34:01;9.70;99.90
12268;DHT22;6196;48.398;11.736;2022-10-23T00:36:29;9.70;99.90
12268;DHT22;6196;48.398;11.736;2022-10-23T00:38:56;9.60;99.90
12268;DHT22;6196;48.398;11.736;2022-10-23T00:41:25;9.60;99.90
12268;DHT22;6196;48.398;11.736;2022-10-23T00:46:36;9.70;99.90
12268;DHT22;6196;48.398;11.736;2022-10-23T00:49:05;9.70;99.90
12268;DHT22;6196;48.398;11.736;2022-10-23T00:51:38;9.60;99.90
12268;DHT22;6196;48.398;11.736;2022-10-23T00:54:11;9.60;99.90
12268;DHT22;6196;48.398;11.736;2022-10-23T00:56:49;9.50;99.90
12268;DHT22;6196;48.398;11.736;2022-10-23T00:59:17;9.40;99.90
12268;DHT22;6196;48.398;11.736;2022-10-23T01:01:44;9.30;99.90
12268;DHT22;6196;48.398;11.736;2022-10-23T01:04:11;9.20;99.90
12268;DHT22;6196;48.398;11.736;2022-10-23T01:06:46;9.20;99.90
12268;DHT22;6196;48.398;11.736;2022-10-23T01:10:00;9.10;99.90
12268;DHT22;6196;48.398;11.736;2022-10-23T01:12:54;9.00;99.90
12268;DHT22;6196;48.398;11.736;2022-10-23T01:15:36;9.10;99.90
12268;DHT22;6196;48.398;11.736;2022-10-23T01:18:40;9.10;99.90
12268;DHT22;6196;48.398;11.736;2022-10-23T01:21:12;9.10;99.90
12268;DHT22;6196;48.398;11.736;2022-10-23T01:26:54;9.00;99.90
12268;DHT22;6196;48.398;11.736;2022-10-23T01:29:50;9.00;99.90
12268;DHT22;6196;48.398;11.736;2022-10-23T01:32:31;9.10;99.90
12268;DHT22;6196;48.398;11.736;2022-10-23T01:35:06;9.20;99.90
12268;DHT22;6196;48.398;11.736;2022-10-23T01:37:44;9.30;99.90
12268;DHT22;6196;48.398;11.736;2022-10-23T01:40:32;9.30;99.90
12268;DHT22;6196;48.398;11.736;2022-10-23T01:43:09;9.40;99.90
12268;DHT22;6196;48.398;11.736;2022-10-23T01:45:46;9.50;99.90
12268;DHT22;6196;48.398;11.736;2022-10-23T01:48:20;9.60;99.90
12268;DHT22;6196;48.398;11.736;2022-10-23T01:50:52;9.60;99.90
12268;DHT22;6196;48.398;11.736;2022-10-23T01:53:26;9.60;99.90
12268;DHT22;6196;48.398;11.736;2022-10-23T01:55:57;9.40;99.90
12268;DHT22;6196;48.398;11.736;2022-10-23T01:58:25;9.30;99.90
12268;DHT22;6196;48.398;11.736;2022-10-23T02:00:57;9.20;99.90
12268;DHT22;6196;48.398;11.736;2022-10-23T02:03:28;9.10;99.90
12268;DHT22;6196;48.398;11.736;2022-10-23T02:05:57;9.00;99.90
12268;DHT22;6196;48.398;11.736;2022-10-23T02:08:24;8.90;99.90
12268;DHT22;6196;48.398;11.736;2022-10-23T02:11:06;8.80;99.90
12268;DHT22;6196;48.398;11.736;2022-10-23T02:19:27;8.40;99.90
12268;DHT22;6196;48.398;11.736;2022-10-23T02:22:25;8.30;99.90
12268;DHT22;6196;48.398;11.736;2022-10-23T02:25:10;8.30;99.90
12268;DHT22;6196;48.398;11.736;2022-10-23T02:27:52;8.30;99.90
12268;DHT22;6196;48.398;11.736;2022-10-23T02:30:21;8.30;99.90
12268;DHT22;6196;48.398;11.736;2022-10-23T02:32:50;8.40;99.90
12268;DHT22;6196;48.398;11.736;2022-10-23T02:35:20;8.50;99.90
12268;DHT22;6196;48.398;11.736;2022-10-23T02:37:59;8.60;99.90
12268;DHT22;6196;48.398;11.736;2022-10-23T02:40:42;8.60;99.90
12268;DHT22;6196;48.398;11.736;2022-10-23T02:43:21;8.70;99.90
12268;DHT22;6196;48.398;11.736;2022-10-23T02:46:11;8.70;99.90
12268;DHT22;6196;48.398;11.736;2022-10-23T02:48:47;8.70;99.90
12268;DHT22;6196;48.398;11.736;2022-10-23T02:52:04;8.70;99.90
12268;DHT22;6196;48.398;11.736;2022-10-23T02:54:57;8.70;99.90
12268;DHT22;6196;48.398;11.736;2022-10-23T02:57:39;8.80;99.90
12268;DHT22;6196;48.398;11.736;2022-10-23T03:00:16;8.90;99.90
12268;DHT22;6196;48.398;11.736;2022-10-23T03:02:55;8.90;99.90
12268;DHT22;6196;48.398;11.736;2022-10-23T03:05:28;9.00;99.90
12268;DHT22;6196;48.398;11.736;2022-10-23T03:07:57;9.00;99.90
12268;DHT22;6196;48.398;11.736;2022-10-23T03:10:24;9.00;99.90
12268;DHT22;6196;48.398;11.736;2022-10-23T03:12:51;8.90;99.90
12268;DHT22;6196;48.398;11.736;2022-10-23T03:15:18;9.00;99.90
12268;DHT22;6196;48.398;11.736;2022-10-23T03:17:44;9.00;99.90
12268;DHT22;6196;48.398;11.736;2022-10-23T03:20:11;8.90;99.90
12268;DHT22;6196;48.398;11.736;2022-10-23T03:22:38;9.00;99.90
12268;DHT22;6196;48.398;11.736;2022-10-23T03:25:06;9.00;99.90
12268;DHT22;6196;48.398;11.736;2022-10-23T03:27:34;8.90;99.90
12268;DHT22;6196;48.398;11.736;2022-10-23T03:30:02;8.90;99.90
12268;DHT22;6196;48.398;11.736;2022-10-23T03:32:30;8.90;99.90
12268;DHT22;6196;48.398;11.736;2022-10-23T03:34:57;8.80;99.90
12268;DHT22;6196;48.398;11.736;2022-10-23T03:37:23;8.80;99.90
12268;DHT22;6196;48.398;11.736;2022-10-23T03:39:50;8.80;99.90
12268;DHT22;6196;48.398;11.736;2022-10-23T03:42:17;8.80;99.90
12268;DHT22;6196;48.398;11.736;2022-10-23T03:44:44;8.80;99.90
12268;DHT22;6196;48.398;11.736;2022-10-23T03:47:11;8.80;99.90
12268;DHT22;6196;48.398;11.736;2022-10-23T03:49:38;8.80;99.90
12268;DHT22;6196;48.398;11.736;2022-10-23T03:52:06;8.80;99.90
12268;DHT22;6196;48.398;11.736;2022-10-23T03:54:33;8.80;99.90
12268;DHT22;6196;48.398;11.736;2022-10-23T03:57:00;8.70;99.90
12268;DHT22;6196;48.398;11.736;2022-10-23T03:59:27;8.70;99.90
12268;DHT22;6196;48.398;11.736;2022-10-23T04:01:54;8.70;99.90
12268;DHT22;6196;48.398;11.736;2022-10-23T04:04:21;8.70;99.90
12268;DHT22;6196;48.398;11.736;2022-10-23T04:06:48;8.70;99.90
12268;DHT22;6196;48.398;11.736;2022-10-23T04:09:15;8.70;99.90
12268;DHT22;6196;48.398;11.736;2022-10-23T04:11:42;8.80;99.90
12268;DHT22;6196;48.398;11.736;2022-10-23T04:14:11;8.90;99.90
12268;DHT22;6196;48.398;11.736;2022-10-23T04:16:38;8.90;99.90
12268;DHT22;6196;48.398;11.736;2022-10-23T04:19:06;8.90;99.90
12268;DHT22;6196;48.398;11.736;2022-10-23T04:21:33;8.80;99.90
12268;DHT22;6196;48.398;11.736;2022-10-23T04:24:00;8.90;99.90
12268;DHT22;6196;48.398;11.736;2022-10-23T04:26:27;8.90;99.90
12268;DHT22;6196;48.398;11.736;2022-10-23T04:28:53;8.90;99.90
12268;DHT22;6196;48.398;11.736;2022-10-23T04:31:20;8.90;99.90
12268;DHT22;6196;48.398;11.736;2022-10-23T04:33:47;8.80;99.90
12268;DHT22;6196;48.398;11.736;2022-10-23T04:36:14;8.80;99.90
12268;DHT22;6196;48.398;11.736;2022-10-23T04:38:41;8.80;99.90
12268;DHT22;6196;48.398;11.736;2022-10-23T04:41:08;8.80;99.90
12268;DHT22;6196;48.398;11.736;2022-10-23T04:43:35;8.70;99.90
12268;DHT22;6196;48.398;11.736;2022-10-23T04:46:02;8.70;99.90
12268;DHT22;6196;48.398;11.736;2022-10-23T04:48:29;8.60;99.90
12268;DHT22;6196;48.398;11.736;2022-10-23T04:50:58;8.60;99.90
12268;DHT22;6196;48.398;11.736;2022-10-23T04:53:27;8.60;99.90
12268;DHT22;6196;48.398;11.736;2022-10-23T04:55:55;8.50;99.90
12268;DHT22;6196;48.398;11.736;2022-10-23T04:58:25;8.50;99.90
12268;DHT22;6196;48.398;11.736;2022-10-23T05:00:53;8.50;99.90
12268;DHT22;6196;48.398;11.736;2022-10-23T05:03:21;8.50;99.90
12268;DHT22;6196;48.398;11.736;2022-10-23T05:05:50;8.50;99.90
12268;DHT22;6196;48.398;11.736;2022-10-23T05:08:18;8.40;99.90
12268;DHT22;6196;48.398;11.736;2022-10-23T05:10:47;8.40;99.90
12268;DHT22;6196;48.398;11.736;2022-10-23T05:13:16;8.40;99.90
12268;DHT22;6196;48.398;11.736;2022-10-23T05:15:47;8.30;99.90
12268;DHT22;6196;48.398;11.736;2022-10-23T05:18:37;8.40;99.90
12268;DHT22;6196;48.398;11.736;2022-10-23T05:21:15;8.40;99.90
12268;DHT22;6196;48.398;11.736;2022-10-23T05:23:48;8.40;99.90
12268;DHT22;6196;48.398;11.736;2022-10-23T05:26:15;8.30;99.90
12268;DHT22;6196;48.398;11.736;2022-10-23T05:28:42;8.40;99.90
12268;DHT22;6196;48.398;11.736;2022-10-23T05:31:09;8.40;99.90
12268;DHT22;6196;48.398;11.736;2022-10-23T05:33:36;8.40;99.90
12268;DHT22;6196;48.398;11.736;2022-10-23T05:36:03;8.50;99.90
12268;DHT22;6196;48.398;11.736;2022-10-23T05:38:32;8.50;99.90
12268;DHT22;6196;48.398;11.736;2022-10-23T05:41:01;8.50;99.90
12268;DHT22;6196;48.398;11.736;2022-10-23T05:43:28;8.50;99.90
12268;DHT22;6196;48.398;11.736;2022-10-23T05:45:57;8.50;99.90
12268;DHT22;6196;48.398;11.736;2022-10-23T05:48:24;8.50;99.90
12268;DHT22;6196;48.398;11.736;2022-10-23T05:51:08;8.50;99.90
12268;DHT22;6196;48.398;11.736;2022-10-23T05:53:36;8.60;99.90
12268;DHT22;6196;48.398;11.736;2022-10-23T05:56:08;8.60;99.90
12268;DHT22;6196;48.398;11.736;2022-10-23T05:58:35;8.50;99.90
12268;DHT22;6196;48.398;11.736;2022-10-23T06:01:07;8.50;99.90
12268;DHT22;6196;48.398;11.736;2022-10-23T06:03:35;8.40;99.90
12268;DHT22;6196;48.398;11.736;2022-10-23T06:06:04;8.30;99.90
12268;DHT22;6196;48.398;11.736;2022-10-23T06:08:32;8.30;99.90
12268;DHT22;6196;48.398;11.736;2022-10-23T06:11:08;8.30;99.90
12268;DHT22;6196;48.398;11.736;2022-10-23T06:13:36;8.30;99.90
12268;DHT22;6196;48.398;11.736;2022-10-23T06:16:12;8.30;99.90
12268;DHT22;6196;48.398;11.736;2022-10-23T06:18:44;8.30;99.90
12268;DHT22;6196;48.398;11.736;2022-10-23T06:21:12;8.40;99.90
12268;DHT22;6196;48.398;11.736;2022-10-23T06:23:41;8.50;99.90
12268;DHT22;6196;48.398;11.736;2022-10-23T06:26:10;8.60;99.90
12268;DHT22;6196;48.398;11.736;2022-10-23T06:28:38;8.60;99.90
12268;DHT22;6196;48.398;11.736;2022-10-23T06:31:08;8.70;99.90
12268;DHT22;6196;48.398;11.736;2022-10-23T06:33:37;8.70;99.90
12268;DHT22;6196;48.398;11.736;2022-10-23T06:36:04;8.80;99.90
12268;DHT22;6196;48.398;11.736;2022-10-23T06:38:33;8.90;99.90
12268;DHT22;6196;48.398;11.736;2022-10-23T06:41:03;9.10;99.90
12268;DHT22;6196;48.398;11.736;2022-10-23T06:43:30;9.30;99.90
12268;DHT22;6196;48.398;11.736;2022-10-23T06:46:02;9.40;99.90
12268;DHT22;6196;48.398;11.736;2022-10-23T06:48:30;9.50;99.90
12268;DHT22;6196;48.398;11.736;2022-10-23T06:50:58;9.70;99.90
12268;DHT22;6196;48.398;11.736;2022-10-23T06:53:29;9.80;99.90
12268;DHT22;6196;48.398;11.736;2022-10-23T06:56:00;10.00;99.90
12268;DHT22;6196;48.398;11.736;2022-10-23T06:58:28;10.20;99.90
12268;DHT22;6196;48.398;11.736;2022-10-23T07:00:57;10.50;99.90
12268;DHT22;6196;48.398;11.736;2022-10-23T07:03:26;10.80;99.90
12268;DHT22;6196;48.398;11.736;2022-10-23T07:05:53;11.10;99.90
12268;DHT22;6196;48.398;11.736;2022-10-23T07:08:19;11.20;99.90
12268;DHT22;6196;48.398;11.736;2022-10-23T07:10:47;11.40;99.90
12268;DHT22;6196;48.398;11.736;2022-10-23T07:13:14;11.70;99.90
12268;DHT22;6196;48.398;11.736;2022-10-23T07:15:41;11.70;99.90
12268;DHT22;6196;48.398;11.736;2022-10-23T07:18:07;11.90;99.90
12268;DHT22;6196;48.398;11.736;2022-10-23T07:20:40;11.90;99.90
12268;DHT22;6196;48.398;11.736;2022-10-23T07:23:08;12.10;99.90
12268;DHT22;6196;48.398;11.736;2022-10-23T07:25:37;12.20;99.90
12268;DHT22;6196;48.398;11.736;2022-10-23T07:28:04;12.20;99.90
12268;DHT22;6196;48.398;11.736;2022-10-23T07:30:31;12.10;99.90
12268;DHT22;6196;48.398;11.736;2022-10-23T07:32:58;12.20;99.90
12268;DHT22;6196;48.398;11.736;2022-10-23T07:35:25;12.40;99.90
12268;DHT22;6196;48.398;11.736;2022-10-23T07:37:52;12.60;99.90
12268;DHT22;6196;48.398;11.736;2022-10-23T07:40:18;12.60;99.90
12268;DHT22;6196;48.398;11.736;2022-10-23T07:42:45;12.50;99.90
12268;DHT22;6196;48.398;11.736;2022-10-23T07:45:12;12.60;99.90
12268;DHT22;6196;48.398;11.736;2022-10-23T07:47:39;12.80;99.90
12268;DHT22;6196;48.398;11.736;2022-10-23T07:50:07;13.10;99.90
12268;DHT22;6196;48.398;11.736;2022-10-23T07:52:35;13.20;99.90
12268;DHT22;6196;48.398;11.736;2022-10-23T07:55:02;13.50;99.90
12268;DHT22;6196;48.398;11.736;2022-10-23T07:57:29;13.60;99.90
12268;DHT22;6196;48.398;11.736;2022-10-23T07:59:56;13.80;99.90
12268;DHT22;6196;48.398;11.736;2022-10-23T08:02:23;13.90;99.90
12268;DHT22;6196;48.398;11.736;2022-10-23T08:04:50;14.20;99.90
12268;DHT22;6196;48.398;11.736;2022-10-23T08:07:17;14.60;99.90
12268;DHT22;6196;48.398;11.736;2022-10-23T08:09:43;15.00;99.90
12268;DHT22;6196;48.398;11.736;2022-10-23T08:12:10;15.20;99.90
12268;DHT22;6196;48.398;11.736;2022-10-23T08:14:38;15.70;99.90
12268;DHT22;6196;48.398;11.736;2022-10-23T08:17:05;15.90;99.90
12268;DHT22;6196;48.398;11.736;2022-10-23T08:19:35;16.00;99.90
12268;DHT22;6196;48.398;11.736;2022-10-23T08:22:02;16.40;99.90
12268;DHT22;6196;48.398;11.736;2022-10-23T08:24:29;16.60;99.90
12268;DHT22;6196;48.398;11.736;2022-10-23T08:26:56;17.00;99.90
12268;DHT22;6196;48.398;11.736;2022-10-23T08:29:24;17.50;99.90
12268;DHT22;6196;48.398;11.736;2022-10-23T08:31:52;17.80;99.90
12268;DHT22;6196;48.398;11.736;2022-10-23T08:34:21;17.90;99.90
12268;DHT22;6196;48.398;11.736;2022-10-23T08:36:50;17.60;99.90
12268;DHT22;6196;48.398;11.736;2022-10-23T08:39:17;17.70;99.90
12268;DHT22;6196;48.398;11.736;2022-10-23T08:41:50;17.60;99.90
12268;DHT22;6196;48.398;11.736;2022-10-23T08:47:11;17.20;99.90
12268;DHT22;6196;48.398;11.736;2022-10-23T08:49:49;17.10;99.90
12268;DHT22;6196;48.398;11.736;2022-10-23T08:52:22;17.00;99.90
12268;DHT22;6196;48.398;11.736;2022-10-23T08:58:21;16.90;99.90
12268;DHT22;6196;48.398;11.736;2022-10-23T09:00:55;16.80;99.90
12268;DHT22;6196;48.398;11.736;2022-10-23T09:03:21;16.80;99.90
12268;DHT22;6196;48.398;11.736;2022-10-23T09:06:11;17.00;99.90
12268;DHT22;6196;48.398;11.736;2022-10-23T09:20:12;16.50;99.90
12268;DHT22;6196;48.398;11.736;2022-10-23T09:22:55;16.60;99.90
12268;DHT22;6196;48.398;11.736;2022-10-23T09:25:29;16.70;99.90
12268;DHT22;6196;48.398;11.736;2022-10-23T09:28:00;17.00;99.90
12268;DHT22;6196;48.398;11.736;2022-10-23T09:30:41;17.30;99.90
12268;DHT22;6196;48.398;11.736;2022-10-23T09:35:59;17.50;99.90
12268;DHT22;6196;48.398;11.736;2022-10-23T09:44:18;18.30;99.90
12268;DHT22;6196;48.398;11.736;2022-10-23T09:46:58;18.90;99.90
12268;DHT22;6196;48.398;11.736;2022-10-23T09:49:29;19.30;99.90
12268;DHT22;6196;48.398;11.736;2022-10-23T09:54:36;19.30;99.90
12268;DHT22;6196;48.398;11.736;2022-10-23T09:59:55;19.40;99.90
12268;DHT22;6196;48.398;11.736;2022-10-23T10:02:28;19.50;99.90
12268;DHT22;6196;48.398;11.736;2022-10-23T10:04:59;19.70;99.90
12268;DHT22;6196;48.398;11.736;2022-10-23T10:07:37;19.90;99.90
12268;DHT22;6196;48.398;11.736;2022-10-23T10:10:08;19.70;99.90
12268;DHT22;6196;48.398;11.736;2022-10-23T10:13:00;20.10;99.90
12268;DHT22;6196;48.398;11.736;2022-10-23T10:15:39;20.30;99.90
12268;DHT22;6196;48.398;11.736;2022-10-23T10:18:34;20.80;99.90
12268;DHT22;6196;48.398;11.736;2022-10-23T10:21:20;21.10;99.90
12268;DHT22;6196;48.398;11.736;2022-10-23T10:27:29;20.90;99.90
12268;DHT22;6196;48.398;11.736;2022-10-23T10:30:23;20.70;99.90
12268;DHT22;6196;48.398;11.736;2022-10-23T10:33:01;21.30;99.90
12268;DHT22;6196;48.398;11.736;2022-10-23T10:38:48;21.60;99.90
12268;DHT22;6196;48.398;11.736;2022-10-23T10:44:15;22.40;99.90
12268;DHT22;6196;48.398;11.736;2022-10-23T10:46:58;23.30;99.90
12268;DHT22;6196;48.398;11.736;2022-10-23T10:55:43;24.50;99.90
12268;DHT22;6196;48.398;11.736;2022-10-23T11:01:19;25.00;99.90
12268;DHT22;6196;48.398;11.736;2022-10-23T11:06:33;25.30;99.90
12268;DHT22;6196;48.398;11.736;2022-10-23T11:09:09;25.10;99.90
12268;DHT22;6196;48.398;11.736;2022-10-23T11:11:47;25.30;99.90
12268;DHT22;6196;48.398;11.736;2022-10-23T11:14:23;26.00;99.90
12268;DHT22;6196;48.398;11.736;2022-10-23T11:16:58;26.00;99.90
12268;DHT22;6196;48.398;11.736;2022-10-23T11:26:04;25.60;99.90
12268;DHT22;6196;48.398;11.736;2022-10-23T11:28:57;25.50;99.90
12268;DHT22;6196;48.398;11.736;2022-10-23T11:31:51;25.60;99.90
12268;DHT22;6196;48.398;11.736;2022-10-23T11:35:20;25.80;99.90
12268;DHT22;6196;48.398;11.736;2022-10-23T11:37:30;25.80;99.90
12268;DHT22;6196;48.398;11.736;2022-10-23T11:42:46;25.00;99.90
12268;DHT22;6196;48.398;11.736;2022-10-23T11:45:35;24.80;99.90
12268;DHT22;6196;48.398;11.736;2022-10-23T11:53:41;24.90;99.90
12268;DHT22;6196;48.398;11.736;2022-10-23T11:58:46;24.90;99.90
12268;DHT22;6196;48.398;11.736;2022-10-23T12:01:38;25.90;99.90
12268;DHT22;6196;48.398;11.736;2022-10-23T12:07:00;24.80;99.90
12268;DHT22;6196;48.398;11.736;2022-10-23T12:15:07;24.70;99.90
12268;DHT22;6196;48.398;11.736;2022-10-23T12:17:38;24.80;99.90
12268;DHT22;6196;48.398;11.736;2022-10-23T12:32:47;27.40;99.90
12268;DHT22;6196;48.398;11.736;2022-10-23T12:35:43;26.90;99.90
12268;DHT22;6196;48.398;11.736;2022-10-23T12:38:30;26.10;99.90
12268;DHT22;6196;48.398;11.736;2022-10-23T12:41:11;25.30;99.90
12268;DHT22;6196;48.398;11.736;2022-10-23T12:43:49;24.70;99.90
12268;DHT22;6196;48.398;11.736;2022-10-23T12:48:55;23.20;99.90
12268;DHT22;6196;48.398;11.736;2022-10-23T12:51:25;22.90;99.90
12268;DHT22;6196;48.398;11.736;2022-10-23T12:54:00;22.70;99.90
12268;DHT22;6196;48.398;11.736;2022-10-23T12:56:34;22.90;99.90
12268;DHT22;6196;48.398;11.736;2022-10-23T12:59:03;22.80;99.90
12268;DHT22;6196;48.398;11.736;2022-10-23T13:01:35;22.60;99.90
12268;DHT22;6196;48.398;11.736;2022-10-23T13:04:12;22.50;99.90
12268;DHT22;6196;48.398;11.736;2022-10-23T13:06:49;22.40;99.90
12268;DHT22;6196;48.398;11.736;2022-10-23T13:09:22;22.20;99.90
12268;DHT22;6196;48.398;11.736;2022-10-23T13:11:54;22.40;99.90
12268;DHT22;6196;48.398;11.736;2022-10-23T13:17:10;22.40;99.90
12268;DHT22;6196;48.398;11.736;2022-10-23T13:19:37;22.40;99.90
12268;DHT22;6196;48.398;11.736;2022-10-23T13:22:17;22.00;99.90
12268;DHT22;6196;48.398;11.736;2022-10-23T13:24:46;21.90;99.90
12268;DHT22;6196;48.398;11.736;2022-10-23T13:27:32;22.00;99.90
12268;DHT22;6196;48.398;11.736;2022-10-23T13:29:59;22.00;99.90
12268;DHT22;6196;48.398;11.736;2022-10-23T13:32:29;22.00;99.90
12268;DHT22;6196;48.398;11.736;2022-10-23T13:34:56;22.10;99.90
12268;DHT22;6196;48.398;11.736;2022-10-23T13:37:47;22.10;99.90
12268;DHT22;6196;48.398;11.736;2022-10-23T13:40:24;22.30;99.90
12268;DHT22;6196;48.398;11.736;2022-10-23T13:42:53;22.70;99.90
12268;DHT22;6196;48.398;11.736;2022-10-23T13:45:23;23.60;99.90
12268;DHT22;6196;48.398;11.736;2022-10-23T13:47:51;24.10;99.90
12268;DHT22;6196;48.398;11.736;2022-10-23T13:50:18;24.40;99.90
12268;DHT22;6196;48.398;11.736;2022-10-23T13:52:45;24.90;99.90
12268;DHT22;6196;48.398;11.736;2022-10-23T13:55:22;25.20;99.90
12268;DHT22;6196;48.398;11.736;2022-10-23T13:57:49;25.80;99.90
12268;DHT22;6196;48.398;11.736;2022-10-23T14:00:16;26.70;99.90
12268;DHT22;6196;48.398;11.736;2022-10-23T14:02:44;27.10;99.90
12268;DHT22;6196;48.398;11.736;2022-10-23T14:05:11;27.50;99.90
12268;DHT22;6196;48.398;11.736;2022-10-23T14:07:38;27.80;99.90
12268;DHT22;6196;48.398;11.736;2022-10-23T14:10:05;27.90;99.90
12268;DHT22;6196;48.398;11.736;2022-10-23T14:12:39;27.90;99.90
12268;DHT22;6196;48.398;11.736;2022-10-23T14:15:08;27.40;99.90
12268;DHT22;6196;48.398;11.736;2022-10-23T14:17:35;27.20;99.90
12268;DHT22;6196;48.398;11.736;2022-10-23T14:20:03;26.50;99.90
12268;DHT22;6196;48.398;11.736;2022-10-23T14:22:32;26.00;99.90
12268;DHT22;6196;48.398;11.736;2022-10-23T14:24:59;25.90;99.90
12268;DHT22;6196;48.398;11.736;2022-10-23T14:27:25;25.70;99.90
12268;DHT22;6196;48.398;11.736;2022-10-23T14:29:52;25.70;99.90
12268;DHT22;6196;48.398;11.736;2022-10-23T14:32:19;25.20;99.90
12268;DHT22;6196;48.398;11.736;2022-10-23T14:34:50;25.00;99.90
12268;DHT22;6196;48.398;11.736;2022-10-23T14:37:18;24.60;99.90
12268;DHT22;6196;48.398;11.736;2022-10-23T14:39:46;24.00;99.90
12268;DHT22;6196;48.398;11.736;2022-10-23T14:42:16;23.10;99.90
12268;DHT22;6196;48.398;11.736;2022-10-23T14:44:43;22.50;99.90
12268;DHT22;6196;48.398;11.736;2022-10-23T14:47:10;22.20;99.90
12268;DHT22;6196;48.398;11.736;2022-10-23T14:49:37;21.80;99.90
12268;DHT22;6196;48.398;11.736;2022-10-23T14:52:06;21.60;99.90
12268;DHT22;6196;48.398;11.736;2022-10-23T14:54:33;21.10;99.90
12268;DHT22;6196;48.398;11.736;2022-10-23T14:57:02;20.80;99.90
12268;DHT22;6196;48.398;11.736;2022-10-23T14:59:29;20.50;99.90
12268;DHT22;6196;48.398;11.736;2022-10-23T15:01:55;20.40;99.90
12268;DHT22;6196;48.398;11.736;2022-10-23T15:04:22;20.20;99.90
12268;DHT22;6196;48.398;11.736;2022-10-23T15:06:49;19.90;99.90
12268;DHT22;6196;48.398;11.736;2022-10-23T15:09:16;19.70;99.90
12268;DHT22;6196;48.398;11.736;2022-10-23T15:11:46;19.30;99.90
12268;DHT22;6196;48.398;11.736;2022-10-23T15:14:13;19.20;99.90
12268;DHT22;6196;48.398;11.736;2022-10-23T15:16:40;18.90;99.90
12268;DHT22;6196;48.398;11.736;2022-10-23T15:19:11;18.80;99.90
12268;DHT22;6196;48.398;11.736;2022-10-23T15:21:45;18.80;99.90
12268;DHT22;6196;48.398;11.736;2022-10-23T15:24:14;18.70;99.90
12268;DHT22;6196;48.398;11.736;2022-10-23T15:26:41;18.60;99.90
12268;DHT22;6196;48.398;11.736;2022-10-23T15:29:10;18.50;99.90
12268;DHT22;6196;48.398;11.736;2022-10-23T15:34:08;18.10;99.90
12268;DHT22;6196;48.398;11.736;2022-10-23T15:36:37;18.00;99.90
12268;DHT22;6196;48.398;11.736;2022-10-23T15:39:08;17.80;99.90
12268;DHT22;6196;48.398;11.736;2022-10-23T15:41:38;17.60;99.90
12268;DHT22;6196;48.398;11.736;2022-10-23T15:44:07;17.50;99.90
12268;DHT22;6196;48.398;11.736;2022-10-23T15:46:35;17.30;99.90
12268;DHT22;6196;48.398;11.736;2022-10-23T15:49:02;17.30;99.90
12268;DHT22;6196;48.398;11.736;2022-10-23T15:51:30;17.20;99.90
12268;DHT22;6196;48.398;11.736;2022-10-23T15:53:57;17.10;99.90
12268;DHT22;6196;48.398;11.736;2022-10-23T15:56:23;17.00;99.90
12268;DHT22;6196;48.398;11.736;2022-10-23T15:58:51;16.80;99.90
12268;DHT22;6196;48.398;11.736;2022-10-23T16:01:17;16.80;99.90
12268;DHT22;6196;48.398;11.736;2022-10-23T16:03:45;16.70;99.90
12268;DHT22;6196;48.398;11.736;2022-10-23T16:06:14;16.70;99.90
12268;DHT22;6196;48.398;11.736;2022-10-23T16:08:41;16.60;99.90
12268;DHT22;6196;48.398;11.736;2022-10-23T16:11:15;16.40;99.90
12268;DHT22;6196;48.398;11.736;2022-10-23T16:13:49;16.50;99.90
12268;DHT22;6196;48.398;11.736;2022-10-23T16:16:17;16.40;99.90
12268;DHT22;6196;48.398;11.736;2022-10-23T16:18:44;16.30;99.90
12268;DHT22;6196;48.398;11.736;2022-10-23T16:21:18;16.30;99.90
12268;DHT22;6196;48.398;11.736;2022-10-23T16:23:49;16.30;99.90
12268;DHT22;6196;48.398;11.736;2022-10-23T16:26:17;16.30;99.90
12268;DHT22;6196;48.398;11.736;2022-10-23T16:28:45;16.30;99.90
12268;DHT22;6196;48.398;11.736;2022-10-23T16:31:15;16.20;99.90
12268;DHT22;6196;48.398;11.736;2022-10-23T16:33:47;16.10;99.90
12268;DHT22;6196;48.398;11.736;2022-10-23T16:36:15;16.00;99.90
12268;DHT22;6196;48.398;11.736;2022-10-23T16:38:43;16.00;99.90
12268;DHT22;6196;48.398;11.736;2022-10-23T16:41:09;16.00;99.90
12268;DHT22;6196;48.398;11.736;2022-10-23T16:43:37;15.90;99.90
12268;DHT22;6196;48.398;11.736;2022-10-23T16:46:06;16.00;99.90
12268;DHT22;6196;48.398;11.736;2022-10-23T16:48:37;16.00;99.90
12268;DHT22;6196;48.398;11.736;2022-10-23T16:51:13;16.00;99.90
12268;DHT22;6196;48.398;11.736;2022-10-23T16:53:42;16.00;99.90
12268;DHT22;6196;48.398;11.736;2022-10-23T16:56:11;15.90;99.90
12268;DHT22;6196;48.398;11.736;2022-10-23T16:58:41;15.80;99.90
12268;DHT22;6196;48.398;11.736;2022-10-23T17:01:11;15.80;99.90
12268;DHT22;6196;48.398;11.736;2022-10-23T17:03:46;15.70;99.90
12268;DHT22;6196;48.398;11.736;2022-10-23T17:06:27;15.70;99.90
12268;DHT22;6196;48.398;11.736;2022-10-23T17:08:57;15.70;99.90
12268;DHT22;6196;48.398;11.736;2022-10-23T17:11:27;15.60;99.90
12268;DHT22;6196;48.398;11.736;2022-10-23T17:14:05;15.50;99.90
12268;DHT22;6196;48.398;11.736;2022-10-23T17:16:46;15.50;99.90
12268;DHT22;6196;48.398;11.736;2022-10-23T17:19:16;15.50;99.90
12268;DHT22;6196;48.398;11.736;2022-10-23T17:22:05;15.40;99.90
12268;DHT22;6196;48.398;11.736;2022-10-23T17:24:39;15.30;99.90
12268;DHT22;6196;48.398;11.736;2022-10-23T17:27:07;15.30;99.90
12268;DHT22;6196;48.398;11.736;2022-10-23T17:29:34;15.30;99.90
12268;DHT22;6196;48.398;11.736;2022-10-23T17:32:01;15.20;99.90
12268;DHT22;6196;48.398;11.736;2022-10-23T17:34:30;15.20;99.90
12268;DHT22;6196;48.398;11.736;2022-10-23T17:36:57;15.20;99.90
12268;DHT22;6196;48.398;11.736;2022-10-23T17:39:26;15.20;99.90
12268;DHT22;6196;48.398;11.736;2022-10-23T17:41:54;15.20;99.90
12268;DHT22;6196;48.398;11.736;2022-10-23T17:44:22;15.20;99.90
12268;DHT22;6196;48.398;11.736;2022-10-23T17:46:53;15.20;99.90
12268;DHT22;6196;48.398;11.736;2022-10-23T17:49:21;15.20;99.90
12268;DHT22;6196;48.398;11.736;2022-10-23T17:51:53;15.20;99.90
12268;DHT22;6196;48.398;11.736;2022-10-23T17:54:22;15.20;99.90
12268;DHT22;6196;48.398;11.736;2022-10-23T17:56:51;15.10;99.90